< < Back
Terminal Aerodrome Forecast


Current Version              Previous Versions:   1  2  3  4  5  6  7  8  9  

Terminal Aerodrome Forecast

270
FTUS42 KGSP 310530
TAFAVL
TAF
KAVL 310530Z 3106/0106 34007KT P6SM SKC
     FM311400 21003KT P6SM FEW150
     FM311700 24007KT P6SM FEW050
     FM312100 28011KT P6SM SCT050
     FM010100 34009KT P6SM SCT050=

Latest METAR

288
SAUS70 KWBC 311500 RRG
MTRAVL
METAR KAVL 311454Z 23003KT 10SM CLR 14/M01 A3004 RMK AO2 SLP161
T01441006 58006


USA.gov is the U.S. government's official web portal to all federal, state and local government web resources and services.